createdAt,value
2018-10-19T04:02:22.113Z,9.03
2018-10-19T04:04:50.467Z,7.97
2018-10-19T04:07:18.554Z,9.67
2018-10-19T04:09:46.632Z,9.50
2018-10-19T04:12:16.196Z,11.38
2018-10-19T04:14:44.293Z,7.80
2018-10-19T04:17:12.524Z,9.63
2018-10-19T04:19:41.574Z,10.80
2018-10-19T04:22:10.259Z,9.33
2018-10-19T04:24:38.376Z,9.23
2018-10-19T04:27:06.527Z,10.33
2018-10-19T04:29:34.583Z,9.48
2018-10-19T04:32:02.675Z,10.70
2018-10-19T04:34:32.068Z,8.93
2018-10-19T04:37:02.773Z,10.60
2018-10-19T04:39:32.213Z,10.30
2018-10-19T04:42:00.740Z,10.23
2018-10-19T04:44:29.270Z,10.97
2018-10-19T04:46:57.784Z,15.32
2018-10-19T04:49:25.872Z,12.23
2018-10-19T04:51:53.990Z,10.75
2018-10-19T04:54:22.468Z,7.60
2018-10-19T04:56:50.737Z,8.90
2018-10-19T04:59:19.136Z,8.63
2018-10-19T05:01:47.835Z,8.37
2018-10-19T05:04:15.927Z,8.30
2018-10-19T05:06:44.032Z,8.70
2018-10-19T05:09:12.955Z,8.83
2018-10-19T05:11:41.481Z,9.97
2018-10-19T05:14:09.712Z,8.57
2018-10-19T05:16:38.635Z,9.13
2018-10-19T05:19:07.429Z,8.23
2018-10-19T05:21:36.593Z,10.13
2018-10-19T05:24:05.952Z,9.57
2018-10-19T05:26:34.285Z,8.47
2018-10-19T05:29:04.678Z,8.80
2018-10-19T05:31:32.784Z,9.63
2018-10-19T05:34:01.658Z,10.83
2018-10-19T05:36:30.287Z,10.07
2018-10-19T05:38:58.787Z,9.07
2018-10-19T05:41:26.904Z,9.05
2018-10-19T05:43:57.084Z,8.53
2018-10-19T05:46:25.163Z,11.33
2018-10-19T05:48:56.547Z,8.33
2018-10-19T05:51:25.083Z,8.58
2018-10-19T05:53:56.787Z,9.20
2018-10-19T05:56:29.047Z,10.67
2018-10-19T05:58:58.362Z,9.30
2018-10-19T06:01:32.201Z,10.67
2018-10-19T06:04:01.340Z,11.27
2018-10-19T06:06:29.548Z,9.03
2018-10-19T06:08:57.652Z,9.73
2018-10-19T06:11:25.745Z,9.50
2018-10-19T06:13:53.853Z,10.05
2018-10-19T06:16:21.934Z,9.93
2018-10-19T06:18:50.760Z,12.05
2018-10-19T06:21:18.832Z,9.73
2018-10-19T06:23:48.231Z,9.38
2018-10-19T06:26:27.150Z,11.40
2018-10-19T06:28:55.253Z,11.88
2018-10-19T06:31:23.316Z,12.77
2018-10-19T06:33:52.344Z,12.00
2018-10-19T06:36:20.510Z,13.10
2018-10-19T06:38:58.801Z,14.90
2018-10-19T06:41:26.887Z,12.97
2018-10-19T06:43:54.972Z,12.03
2018-10-19T06:46:23.061Z,14.90
2018-10-19T06:48:51.517Z,11.55
2018-10-19T06:51:19.713Z,13.95
2018-10-19T06:53:51.547Z,16.37
2018-10-19T06:56:24.382Z,14.97
2018-10-19T06:58:53.671Z,14.67
2018-10-19T07:01:24.874Z,12.53
2018-10-19T07:03:52.995Z,11.20
2018-10-19T07:06:22.196Z,11.80
2018-10-19T07:08:55.263Z,12.43
2018-10-19T07:11:23.340Z,13.15
2018-10-19T07:13:52.039Z,12.70
2018-10-19T07:16:21.167Z,13.53
2018-10-19T07:18:53.131Z,15.10
2018-10-19T07:21:21.879Z,12.87
2018-10-19T07:23:49.969Z,14.37
2018-10-19T07:26:18.065Z,14.43
2018-10-19T07:28:46.171Z,18.62
2018-10-19T07:31:15.280Z,15.30
2018-10-19T07:33:43.476Z,17.67
2018-10-19T07:36:11.553Z,19.00
2018-10-19T07:38:39.708Z,17.30
2018-10-19T07:41:07.862Z,19.13
2018-10-19T07:43:35.908Z,19.77
2018-10-19T07:46:04.031Z,17.53
2018-10-19T07:48:32.166Z,19.57
2018-10-19T07:51:00.695Z,17.60
2018-10-19T07:53:28.818Z,20.20
2018-10-19T07:55:56.899Z,17.25
2018-10-19T07:58:24.989Z,18.40
2018-10-19T08:00:53.155Z,19.47
2018-10-19T08:03:21.771Z,22.53
2018-10-19T08:05:49.871Z,21.00
2018-10-19T08:08:18.019Z,19.30
2018-10-19T08:10:46.111Z,19.13
2018-10-19T08:13:14.200Z,17.77
2018-10-19T08:15:42.268Z,21.73
2018-10-19T08:18:10.382Z,20.53
2018-10-19T08:20:38.908Z,22.27
2018-10-19T08:23:07.061Z,21.17
2018-10-19T08:25:35.095Z,23.20
2018-10-19T08:28:03.214Z,21.13
2018-10-19T08:30:31.299Z,19.15
2018-10-19T08:32:59.472Z,21.17
2018-10-19T08:35:37.540Z,23.95
2018-10-19T08:38:05.651Z,24.07
2018-10-19T08:40:33.731Z,21.47
2018-10-19T08:43:01.942Z,20.70
2018-10-19T08:45:30.095Z,22.00
2018-10-19T08:47:58.231Z,21.65
2018-10-19T08:50:26.321Z,28.47
2018-10-19T08:52:54.435Z,22.10
2018-10-19T08:55:22.496Z,24.03
2018-10-19T08:57:50.691Z,22.47
2018-10-19T09:00:18.842Z,22.40
2018-10-19T09:02:46.854Z,21.93
2018-10-19T09:05:15.972Z,22.13
2018-10-19T09:07:44.047Z,22.17
2018-10-19T09:10:12.135Z,22.53
2018-10-19T09:12:40.422Z,23.07
2018-10-19T09:15:08.431Z,22.73
2018-10-19T09:17:36.530Z,23.10
2018-10-19T09:20:06.144Z,22.82
2018-10-19T09:22:34.247Z,24.07
2018-10-19T09:25:02.332Z,24.07
2018-10-19T09:27:30.504Z,21.57
2018-10-19T09:30:00.170Z,26.45
2018-10-19T09:32:28.252Z,22.00
2018-10-19T09:34:56.450Z,28.87
2018-10-19T09:37:24.474Z,24.98
2018-10-19T09:39:59.608Z,28.37
2018-10-19T09:42:27.682Z,27.13
2018-10-19T09:44:55.777Z,24.53
2018-10-19T09:47:23.858Z,26.10
2018-10-19T09:49:51.952Z,29.10
2018-10-19T09:52:20.089Z,25.82
2018-10-19T09:54:48.219Z,27.17
2018-10-19T09:57:17.214Z,25.90
2018-10-19T09:59:46.380Z,26.40
2018-10-19T10:02:14.460Z,27.10
2018-10-19T10:04:42.638Z,26.17
2018-10-19T10:07:10.882Z,22.70
2018-10-19T10:09:38.951Z,25.83
2018-10-19T10:12:07.039Z,23.73
2018-10-19T10:14:37.251Z,27.10
2018-10-19T10:17:05.331Z,23.40
2018-10-19T10:19:34.323Z,24.67
2018-10-19T10:22:02.465Z,27.20
2018-10-19T10:24:30.558Z,23.43
2018-10-19T10:26:58.753Z,22.65
2018-10-19T10:29:26.827Z,25.87
2018-10-19T10:31:54.948Z,22.70
2018-10-19T10:34:23.051Z,26.73
2018-10-19T10:36:51.180Z,21.43
2018-10-19T10:39:19.373Z,20.73
2018-10-19T10:41:47.392Z,20.77
